sensor_id;sensor_type;location;lat;lon;timestamp;pressure;altitude;pressure_sealevel;temperature;humidity
64632;BME280;58358;50.936;0.246;2022-09-01T00:01:11;101434.65;;;14.63;71.36
64632;BME280;58358;50.936;0.246;2022-09-01T00:03:31;101429.41;;;14.03;71.74
64632;BME280;58358;50.936;0.246;2022-09-01T00:05:57;101426.06;;;14.15;72.57
64632;BME280;58358;50.936;0.246;2022-09-01T00:08:23;101427.08;;;13.97;72.27
64632;BME280;58358;50.936;0.246;2022-09-01T00:10:49;101425.04;;;14.14;72.15
64632;BME280;58358;50.936;0.246;2022-09-01T00:13:13;101424.59;;;13.99;73.28
64632;BME280;58358;50.936;0.246;2022-09-01T00:15:38;101426.09;;;13.75;72.71
64632;BME280;58358;50.936;0.246;2022-09-01T00:18:04;101421.14;;;14.20;74.40
64632;BME280;58358;50.936;0.246;2022-09-01T00:20:31;101422.54;;;14.05;73.44
64632;BME280;58358;50.936;0.246;2022-09-01T00:22:56;101420.87;;;14.46;71.15
64632;BME280;58358;50.936;0.246;2022-09-01T00:25:22;101420.83;;;15.00;69.82
64632;BME280;58358;50.936;0.246;2022-09-01T00:27:49;101424.71;;;14.96;68.69
64632;BME280;58358;50.936;0.246;2022-09-01T00:30:13;101422.69;;;14.83;70.19
64632;BME280;58358;50.936;0.246;2022-09-01T00:32:38;101422.43;;;14.47;70.41
64632;BME280;58358;50.936;0.246;2022-09-01T00:35:05;101419.06;;;14.44;71.16
64632;BME280;58358;50.936;0.246;2022-09-01T00:37:29;101417.86;;;15.00;70.35
64632;BME280;58358;50.936;0.246;2022-09-01T00:39:55;101417.64;;;14.44;71.56
64632;BME280;58358;50.936;0.246;2022-09-01T00:42:20;101414.54;;;14.92;69.98
64632;BME280;58358;50.936;0.246;2022-09-01T00:44:48;101421.89;;;15.34;69.21
64632;BME280;58358;50.936;0.246;2022-09-01T00:47:12;101413.22;;;14.48;71.53
64632;BME280;58358;50.936;0.246;2022-09-01T00:49:39;101414.46;;;15.06;69.30
64632;BME280;58358;50.936;0.246;2022-09-01T00:52:06;101407.87;;;15.78;67.87
64632;BME280;58358;50.936;0.246;2022-09-01T00:54:35;101410.38;;;15.25;68.94
64632;BME280;58358;50.936;0.246;2022-09-01T00:56:55;101405.17;;;15.54;67.84
64632;BME280;58358;50.936;0.246;2022-09-01T00:59:21;101400.75;;;14.62;71.24
64632;BME280;58358;50.936;0.246;2022-09-01T01:01:46;101401.92;;;15.57;68.05
64632;BME280;58358;50.936;0.246;2022-09-01T01:04:12;101400.11;;;14.69;70.14
64632;BME280;58358;50.936;0.246;2022-09-01T01:06:37;101398.18;;;14.66;72.35
64632;BME280;58358;50.936;0.246;2022-09-01T01:09:03;101393.53;;;14.63;72.93
64632;BME280;58358;50.936;0.246;2022-09-01T01:11:30;101393.89;;;13.93;75.23
64632;BME280;58358;50.936;0.246;2022-09-01T01:13:57;101386.95;;;13.92;73.64
64632;BME280;58358;50.936;0.246;2022-09-01T01:16:21;101381.69;;;14.29;74.08
64632;BME280;58358;50.936;0.246;2022-09-01T01:18:46;101383.35;;;14.54;72.32
64632;BME280;58358;50.936;0.246;2022-09-01T01:21:17;101378.54;;;14.24;74.30
64632;BME280;58358;50.936;0.246;2022-09-01T01:23:42;101379.60;;;14.34;73.63
64632;BME280;58358;50.936;0.246;2022-09-01T01:26:04;101380.48;;;14.73;71.86
64632;BME280;58358;50.936;0.246;2022-09-01T01:28:33;101379.62;;;14.94;71.15
64632;BME280;58358;50.936;0.246;2022-09-01T01:30:58;101376.52;;;14.22;74.29
64632;BME280;58358;50.936;0.246;2022-09-01T01:33:22;101373.23;;;14.08;73.55
64632;BME280;58358;50.936;0.246;2022-09-01T01:35:46;101374.42;;;15.39;70.13
64632;BME280;58358;50.936;0.246;2022-09-01T01:38:11;101373.05;;;15.21;69.72
64632;BME280;58358;50.936;0.246;2022-09-01T01:40:37;101369.37;;;14.92;71.57
64632;BME280;58358;50.936;0.246;2022-09-01T01:43:05;101366.02;;;14.83;72.03
64632;BME280;58358;50.936;0.246;2022-09-01T01:45:29;101363.43;;;14.22;72.63
64632;BME280;58358;50.936;0.246;2022-09-01T01:47:54;101367.88;;;14.97;71.64
64632;BME280;58358;50.936;0.246;2022-09-01T01:50:21;101370.09;;;15.22;70.73
64632;BME280;58358;50.936;0.246;2022-09-01T01:52:45;101367.56;;;14.55;72.29
64632;BME280;58358;50.936;0.246;2022-09-01T01:55:11;101370.09;;;15.64;70.78
64632;BME280;58358;50.936;0.246;2022-09-01T01:57:37;101369.42;;;15.28;70.03
64632;BME280;58358;50.936;0.246;2022-09-01T02:00:04;101371.03;;;15.12;70.16
64632;BME280;58358;50.936;0.246;2022-09-01T02:02:28;101362.88;;;14.78;71.77
64632;BME280;58358;50.936;0.246;2022-09-01T02:04:54;101365.23;;;15.05;70.23
64632;BME280;58358;50.936;0.246;2022-09-01T02:07:19;101366.93;;;15.22;70.40
64632;BME280;58358;50.936;0.246;2022-09-01T02:09:45;101367.08;;;15.73;68.49
64632;BME280;58358;50.936;0.246;2022-09-01T02:12:11;101368.01;;;16.19;67.00
64632;BME280;58358;50.936;0.246;2022-09-01T02:14:36;101368.51;;;15.67;68.03
64632;BME280;58358;50.936;0.246;2022-09-01T02:17:03;101360.78;;;16.23;66.84
64632;BME280;58358;50.936;0.246;2022-09-01T02:19:28;101360.95;;;14.91;70.38
64632;BME280;58358;50.936;0.246;2022-09-01T02:21:53;101361.08;;;14.96;71.25
64632;BME280;58358;50.936;0.246;2022-09-01T02:24:19;101359.09;;;15.61;69.17
64632;BME280;58358;50.936;0.246;2022-09-01T02:26:47;101355.18;;;16.01;68.38
64632;BME280;58358;50.936;0.246;2022-09-01T02:29:13;101352.71;;;15.15;69.17
64632;BME280;58358;50.936;0.246;2022-09-01T02:31:38;101351.68;;;14.97;68.60
64632;BME280;58358;50.936;0.246;2022-09-01T02:34:02;101346.35;;;16.04;67.30
64632;BME280;58358;50.936;0.246;2022-09-01T02:36:28;101349.79;;;15.84;68.21
64632;BME280;58358;50.936;0.246;2022-09-01T02:38:53;101344.82;;;15.34;68.85
64632;BME280;58358;50.936;0.246;2022-09-01T02:41:18;101348.90;;;15.32;69.20
64632;BME280;58358;50.936;0.246;2022-09-01T02:43:45;101349.42;;;14.95;70.25
64632;BME280;58358;50.936;0.246;2022-09-01T02:46:10;101344.78;;;15.52;69.47
64632;BME280;58358;50.936;0.246;2022-09-01T02:48:38;101342.80;;;14.22;72.39
64632;BME280;58358;50.936;0.246;2022-09-01T02:51:03;101338.44;;;14.21;72.90
64632;BME280;58358;50.936;0.246;2022-09-01T02:53:27;101341.85;;;15.00;70.90
64632;BME280;58358;50.936;0.246;2022-09-01T02:55:52;101337.86;;;15.33;70.27
64632;BME280;58358;50.936;0.246;2022-09-01T02:58:18;101338.53;;;14.45;72.27
64632;BME280;58358;50.936;0.246;2022-09-01T03:00:44;101337.77;;;14.58;72.38
64632;BME280;58358;50.936;0.246;2022-09-01T03:03:09;101333.98;;;14.90;71.45
64632;BME280;58358;50.936;0.246;2022-09-01T03:05:35;101333.87;;;14.29;71.74
64632;BME280;58358;50.936;0.246;2022-09-01T03:08:02;101332.31;;;15.82;69.19
64632;BME280;58358;50.936;0.246;2022-09-01T03:10:28;101328.49;;;15.61;68.73
64632;BME280;58358;50.936;0.246;2022-09-01T03:12:53;101331.81;;;14.83;71.24
64632;BME280;58358;50.936;0.246;2022-09-01T03:15:17;101330.32;;;15.34;69.45
64632;BME280;58358;50.936;0.246;2022-09-01T03:17:43;101332.24;;;14.63;72.41
64632;BME280;58358;50.936;0.246;2022-09-01T03:20:09;101328.88;;;14.98;71.63
64632;BME280;58358;50.936;0.246;2022-09-01T03:22:34;101325.88;;;13.73;72.98
64632;BME280;58358;50.936;0.246;2022-09-01T03:25:00;101320.37;;;15.24;69.61
64632;BME280;58358;50.936;0.246;2022-09-01T03:27:25;101316.34;;;15.50;69.47
64632;BME280;58358;50.936;0.246;2022-09-01T03:29:51;101321.18;;;14.66;72.22
64632;BME280;58358;50.936;0.246;2022-09-01T03:32:17;101311.50;;;14.91;72.53
64632;BME280;58358;50.936;0.246;2022-09-01T03:34:44;101317.87;;;14.66;71.53
64632;BME280;58358;50.936;0.246;2022-09-01T03:37:08;101308.35;;;15.68;68.80
64632;BME280;58358;50.936;0.246;2022-09-01T03:39:34;101312.85;;;14.48;71.83
64632;BME280;58358;50.936;0.246;2022-09-01T03:41:59;101310.09;;;14.53;73.19
64632;BME280;58358;50.936;0.246;2022-09-01T03:44:25;101317.09;;;14.62;72.89
64632;BME280;58358;50.936;0.246;2022-09-01T03:46:50;101308.73;;;14.36;73.55
64632;BME280;58358;50.936;0.246;2022-09-01T03:49:16;101304.57;;;14.07;74.89
64632;BME280;58358;50.936;0.246;2022-09-01T03:51:42;101306.71;;;14.72;71.99
64632;BME280;58358;50.936;0.246;2022-09-01T03:54:07;101307.56;;;14.86;71.59
64632;BME280;58358;50.936;0.246;2022-09-01T03:56:33;101306.12;;;14.62;71.18
64632;BME280;58358;50.936;0.246;2022-09-01T03:58:59;101309.83;;;15.00;70.40
64632;BME280;58358;50.936;0.246;2022-09-01T04:01:26;101304.30;;;15.03;71.03
64632;BME280;58358;50.936;0.246;2022-09-01T04:03:50;101299.82;;;15.52;70.41
64632;BME280;58358;50.936;0.246;2022-09-01T04:06:16;101301.79;;;14.86;71.06
64632;BME280;58358;50.936;0.246;2022-09-01T04:08:41;101298.27;;;14.76;71.17
64632;BME280;58358;50.936;0.246;2022-09-01T04:11:13;101295.36;;;14.94;71.15
64632;BME280;58358;50.936;0.246;2022-09-01T04:13:35;101295.98;;;14.21;71.71
64632;BME280;58358;50.936;0.246;2022-09-01T04:15:58;101289.36;;;15.70;69.01
64632;BME280;58358;50.936;0.246;2022-09-01T04:18:24;101290.68;;;16.02;68.74
64632;BME280;58358;50.936;0.246;2022-09-01T04:20:51;101292.84;;;15.24;68.39
64632;BME280;58358;50.936;0.246;2022-09-01T04:23:17;101295.16;;;15.41;68.14
64632;BME280;58358;50.936;0.246;2022-09-01T04:25:41;101293.31;;;16.91;63.64
64632;BME280;58358;50.936;0.246;2022-09-01T04:28:08;101293.39;;;17.17;62.87
64632;BME280;58358;50.936;0.246;2022-09-01T04:30:33;101293.78;;;16.53;63.18
64632;BME280;58358;50.936;0.246;2022-09-01T04:32:58;101295.95;;;17.18;62.63
64632;BME280;58358;50.936;0.246;2022-09-01T04:35:25;101301.56;;;16.28;65.45
64632;BME280;58358;50.936;0.246;2022-09-01T04:37:49;101297.18;;;15.65;67.39
64632;BME280;58358;50.936;0.246;2022-09-01T04:40:15;101299.72;;;14.97;70.66
64632;BME280;58358;50.936;0.246;2022-09-01T04:42:41;101298.24;;;14.30;72.34
64632;BME280;58358;50.936;0.246;2022-09-01T04:45:08;101287.58;;;15.32;69.92
64632;BME280;58358;50.936;0.246;2022-09-01T04:47:34;101282.85;;;15.30;68.10
64632;BME280;58358;50.936;0.246;2022-09-01T04:49:58;101276.87;;;14.92;70.67
64632;BME280;58358;50.936;0.246;2022-09-01T04:52:23;101277.92;;;15.38;69.67
64632;BME280;58358;50.936;0.246;2022-09-01T04:54:49;101276.43;;;14.41;71.67
64632;BME280;58358;50.936;0.246;2022-09-01T04:57:15;101278.03;;;14.76;71.74
64632;BME280;58358;50.936;0.246;2022-09-01T04:59:40;101276.18;;;14.43;71.13
64632;BME280;58358;50.936;0.246;2022-09-01T05:02:06;101275.33;;;14.68;71.23
64632;BME280;58358;50.936;0.246;2022-09-01T05:04:33;101277.62;;;14.04;72.90
64632;BME280;58358;50.936;0.246;2022-09-01T05:06:58;101279.26;;;14.46;72.34
64632;BME280;58358;50.936;0.246;2022-09-01T05:09:23;101283.46;;;15.18;69.15
64632;BME280;58358;50.936;0.246;2022-09-01T05:11:49;101286.54;;;15.48;69.00
64632;BME280;58358;50.936;0.246;2022-09-01T05:14:14;101286.11;;;16.46;65.50
64632;BME280;58358;50.936;0.246;2022-09-01T05:16:40;101290.30;;;15.52;66.07
64632;BME280;58358;50.936;0.246;2022-09-01T05:19:06;101289.39;;;15.93;65.33
64632;BME280;58358;50.936;0.246;2022-09-01T05:21:32;101289.71;;;15.28;66.34
64632;BME280;58358;50.936;0.246;2022-09-01T05:23:58;101290.05;;;17.12;62.55
64632;BME280;58358;50.936;0.246;2022-09-01T05:26:24;101291.85;;;17.06;62.39
64632;BME280;58358;50.936;0.246;2022-09-01T05:28:52;101293.13;;;17.20;63.25
64632;BME280;58358;50.936;0.246;2022-09-01T05:31:14;101297.50;;;16.83;65.67
64632;BME280;58358;50.936;0.246;2022-09-01T05:33:40;101297.80;;;16.07;66.42
64632;BME280;58358;50.936;0.246;2022-09-01T05:36:05;101293.46;;;16.37;66.85
64632;BME280;58358;50.936;0.246;2022-09-01T05:38:31;101290.76;;;16.24;66.12
64632;BME280;58358;50.936;0.246;2022-09-01T05:40:59;101292.66;;;16.92;64.20
64632;BME280;58358;50.936;0.246;2022-09-01T05:43:22;101290.41;;;18.16;61.08
64632;BME280;58358;50.936;0.246;2022-09-01T05:45:47;101286.96;;;17.44;62.12
64632;BME280;58358;50.936;0.246;2022-09-01T05:48:13;101289.47;;;17.82;61.97
64632;BME280;58358;50.936;0.246;2022-09-01T05:50:40;101287.35;;;17.77;60.92
64632;BME280;58358;50.936;0.246;2022-09-01T05:53:04;101286.91;;;17.00;63.68
64632;BME280;58358;50.936;0.246;2022-09-01T05:55:31;101292.64;;;15.93;65.92
64632;BME280;58358;50.936;0.246;2022-09-01T05:57:56;101291.26;;;16.88;65.78
64632;BME280;58358;50.936;0.246;2022-09-01T06:00:21;101291.33;;;15.84;67.82
64632;BME280;58358;50.936;0.246;2022-09-01T06:02:47;101290.27;;;16.18;66.28
64632;BME280;58358;50.936;0.246;2022-09-01T06:05:14;101290.97;;;16.53;65.80
64632;BME280;58358;50.936;0.246;2022-09-01T06:07:39;101291.67;;;15.56;67.12
64632;BME280;58358;50.936;0.246;2022-09-01T06:10:05;101296.61;;;15.65;68.57
64632;BME280;58358;50.936;0.246;2022-09-01T06:12:30;101295.24;;;16.22;66.92
64632;BME280;58358;50.936;0.246;2022-09-01T06:14:56;101294.19;;;15.08;68.58
64632;BME280;58358;50.936;0.246;2022-09-01T06:17:23;101292.52;;;16.54;65.21
64632;BME280;58358;50.936;0.246;2022-09-01T06:19:47;101290.74;;;15.81;66.50
64632;BME280;58358;50.936;0.246;2022-09-01T06:22:13;101292.15;;;16.26;65.89
64632;BME280;58358;50.936;0.246;2022-09-01T06:24:38;101294.57;;;15.90;67.21
64632;BME280;58358;50.936;0.246;2022-09-01T06:27:04;101291.31;;;15.83;67.17
64632;BME280;58358;50.936;0.246;2022-09-01T06:29:30;101286.23;;;15.74;67.96
64632;BME280;58358;50.936;0.246;2022-09-01T06:31:55;101282.68;;;15.76;68.00
64632;BME280;58358;50.936;0.246;2022-09-01T06:34:21;101278.73;;;14.70;70.09
64632;BME280;58358;50.936;0.246;2022-09-01T06:36:47;101283.92;;;14.24;72.37
64632;BME280;58358;50.936;0.246;2022-09-01T06:39:15;101283.22;;;15.12;68.83
64632;BME280;58358;50.936;0.246;2022-09-01T06:41:38;101288.96;;;14.71;69.92
64632;BME280;58358;50.936;0.246;2022-09-01T06:44:03;101285.76;;;16.32;66.46
64632;BME280;58358;50.936;0.246;2022-09-01T06:46:29;101283.92;;;15.73;67.51
64632;BME280;58358;50.936;0.246;2022-09-01T06:48:55;101283.73;;;16.02;67.08
64632;BME280;58358;50.936;0.246;2022-09-01T06:51:22;101290.77;;;16.29;66.73
64632;BME280;58358;50.936;0.246;2022-09-01T06:53:47;101295.58;;;14.90;70.18
64632;BME280;58358;50.936;0.246;2022-09-01T06:56:11;101295.73;;;15.26;70.32
64632;BME280;58358;50.936;0.246;2022-09-01T06:58:37;101294.82;;;14.55;71.36
64632;BME280;58358;50.936;0.246;2022-09-01T07:01:07;101286.90;;;15.95;68.16
64632;BME280;58358;50.936;0.246;2022-09-01T07:03:29;101294.20;;;15.86;67.81
64632;BME280;58358;50.936;0.246;2022-09-01T07:05:54;101296.17;;;16.62;65.80
64632;BME280;58358;50.936;0.246;2022-09-01T07:08:19;101293.37;;;16.62;65.50
64632;BME280;58358;50.936;0.246;2022-09-01T07:10:47;101295.40;;;17.04;64.77
64632;BME280;58358;50.936;0.246;2022-09-01T07:13:13;101297.20;;;16.83;64.76
64632;BME280;58358;50.936;0.246;2022-09-01T07:15:38;101290.31;;;16.04;65.00
64632;BME280;58358;50.936;0.246;2022-09-01T07:18:02;101285.99;;;15.96;66.31
64632;BME280;58358;50.936;0.246;2022-09-01T07:20:28;101289.62;;;16.70;64.99
64632;BME280;58358;50.936;0.246;2022-09-01T07:22:55;101290.92;;;16.63;63.96
64632;BME280;58358;50.936;0.246;2022-09-01T07:25:19;101283.80;;;16.52;65.57
64632;BME280;58358;50.936;0.246;2022-09-01T07:27:46;101293.18;;;15.68;67.48
64632;BME280;58358;50.936;0.246;2022-09-01T07:30:11;101293.59;;;15.60;68.18
64632;BME280;58358;50.936;0.246;2022-09-01T07:32:37;101291.51;;;15.66;66.95
64632;BME280;58358;50.936;0.246;2022-09-01T07:35:03;101295.39;;;15.36;68.99
64632;BME280;58358;50.936;0.246;2022-09-01T07:37:28;101304.59;;;15.59;68.61
64632;BME280;58358;50.936;0.246;2022-09-01T07:39:53;101300.37;;;15.07;68.77
64632;BME280;58358;50.936;0.246;2022-09-01T07:42:19;101298.53;;;16.65;65.85
64632;BME280;58358;50.936;0.246;2022-09-01T07:44:44;101296.83;;;15.86;66.08
64632;BME280;58358;50.936;0.246;2022-09-01T07:47:10;101297.23;;;16.48;65.87
64632;BME280;58358;50.936;0.246;2022-09-01T07:49:36;101296.38;;;15.99;66.12
64632;BME280;58358;50.936;0.246;2022-09-01T07:52:03;101296.51;;;15.33;69.26
64632;BME280;58358;50.936;0.246;2022-09-01T07:54:27;101299.44;;;15.88;67.45
64632;BME280;58358;50.936;0.246;2022-09-01T07:56:53;101303.50;;;16.37;65.16
64632;BME280;58358;50.936;0.246;2022-09-01T07:59:19;101299.22;;;16.20;65.15
64632;BME280;58358;50.936;0.246;2022-09-01T08:01:44;101304.63;;;15.65;66.66
64632;BME280;58358;50.936;0.246;2022-09-01T08:04:10;101306.08;;;16.54;64.98
64632;BME280;58358;50.936;0.246;2022-09-01T08:06:35;101304.81;;;15.67;65.12
64632;BME280;58358;50.936;0.246;2022-09-01T08:09:01;101301.68;;;15.95;65.16
64632;BME280;58358;50.936;0.246;2022-09-01T08:11:29;101302.67;;;16.32;65.03
64632;BME280;58358;50.936;0.246;2022-09-01T08:13:53;101301.35;;;15.87;66.18
64632;BME280;58358;50.936;0.246;2022-09-01T08:16:18;101303.80;;;16.91;64.09
64632;BME280;58358;50.936;0.246;2022-09-01T08:18:44;101304.70;;;15.57;67.55
64632;BME280;58358;50.936;0.246;2022-09-01T08:21:11;101307.54;;;15.67;67.65
64632;BME280;58358;50.936;0.246;2022-09-01T08:23:35;101304.65;;;15.47;67.43
64632;BME280;58358;50.936;0.246;2022-09-01T08:26:05;101303.07;;;16.35;66.73
64632;BME280;58358;50.936;0.246;2022-09-01T08:28:26;101303.07;;;16.58;65.87
64632;BME280;58358;50.936;0.246;2022-09-01T08:30:52;101303.44;;;16.93;63.98
64632;BME280;58358;50.936;0.246;2022-09-01T08:33:17;101302.91;;;15.90;67.36
64632;BME280;58358;50.936;0.246;2022-09-01T08:35:47;101310.02;;;16.60;65.67
64632;BME280;58358;50.936;0.246;2022-09-01T08:38:09;101310.22;;;16.48;66.40
64632;BME280;58358;50.936;0.246;2022-09-01T08:40:36;101308.70;;;16.93;63.89
64632;BME280;58358;50.936;0.246;2022-09-01T08:43:10;101309.37;;;16.75;66.02
64632;BME280;58358;50.936;0.246;2022-09-01T08:45:29;101313.79;;;16.78;66.65
64632;BME280;58358;50.936;0.246;2022-09-01T08:47:52;101314.90;;;16.51;64.91
64632;BME280;58358;50.936;0.246;2022-09-01T08:50:17;101313.66;;;17.31;63.92
64632;BME280;58358;50.936;0.246;2022-09-01T08:52:49;101318.44;;;17.25;63.14
64632;BME280;58358;50.936;0.246;2022-09-01T08:55:15;101313.04;;;16.75;65.41
64632;BME280;58358;50.936;0.246;2022-09-01T08:57:36;101312.04;;;17.16;63.26
64632;BME280;58358;50.936;0.246;2022-09-01T08:59:59;101320.40;;;17.57;62.13
64632;BME280;58358;50.936;0.246;2022-09-01T09:02:34;101318.12;;;17.08;64.35
64632;BME280;58358;50.936;0.246;2022-09-01T09:04:58;101315.59;;;16.88;64.59
64632;BME280;58358;50.936;0.246;2022-09-01T09:07:25;101313.27;;;17.52;63.76
64632;BME280;58358;50.936;0.246;2022-09-01T09:09:46;101313.62;;;17.76;61.76
64632;BME280;58358;50.936;0.246;2022-09-01T09:14:47;101318.26;;;17.00;62.64
64632;BME280;58358;50.936;0.246;2022-09-01T09:16:58;101313.34;;;16.53;65.74
64632;BME280;58358;50.936;0.246;2022-09-01T09:19:27;101314.94;;;17.09;66.00
64632;BME280;58358;50.936;0.246;2022-09-01T09:21:51;101305.89;;;16.74;66.19
64632;BME280;58358;50.936;0.246;2022-09-01T09:24:22;101310.55;;;16.98;66.17
64632;BME280;58358;50.936;0.246;2022-09-01T09:26:47;101309.91;;;17.30;62.93
64632;BME280;58358;50.936;0.246;2022-09-01T09:29:08;101307.55;;;17.12;65.05
64632;BME280;58358;50.936;0.246;2022-09-01T09:31:35;101298.47;;;18.37;60.24
64632;BME280;58358;50.936;0.246;2022-09-01T09:33:58;101301.56;;;18.37;60.52
64632;BME280;58358;50.936;0.246;2022-09-01T09:36:30;101301.16;;;19.15;59.26
64632;BME280;58358;50.936;0.246;2022-09-01T09:39:08;101298.55;;;17.32;61.29
64632;BME280;58358;50.936;0.246;2022-09-01T09:41:16;101296.40;;;18.06;61.83
64632;BME280;58358;50.936;0.246;2022-09-01T09:43:43;101297.50;;;16.93;63.40
64632;BME280;58358;50.936;0.246;2022-09-01T09:46:20;101299.05;;;17.45;62.87
64632;BME280;58358;50.936;0.246;2022-09-01T09:48:31;101296.93;;;18.01;60.83
64632;BME280;58358;50.936;0.246;2022-09-01T09:53:27;101301.78;;;19.10;58.98
64632;BME280;58358;50.936;0.246;2022-09-01T09:55:53;101299.67;;;19.89;56.38
64632;BME280;58358;50.936;0.246;2022-09-01T09:58:13;101296.96;;;19.65;56.84
64632;BME280;58358;50.936;0.246;2022-09-01T10:03:07;101295.28;;;19.79;57.55
64632;BME280;58358;50.936;0.246;2022-09-01T10:05:38;101291.92;;;18.49;59.43
64632;BME280;58358;50.936;0.246;2022-09-01T10:07:56;101291.27;;;18.76;58.97
64632;BME280;58358;50.936;0.246;2022-09-01T10:10:29;101288.51;;;19.65;55.30
64632;BME280;58358;50.936;0.246;2022-09-01T10:12:47;101292.19;;;19.15;57.77
64632;BME280;58358;50.936;0.246;2022-09-01T10:15:13;101293.42;;;19.67;57.08
64632;BME280;58358;50.936;0.246;2022-09-01T10:17:41;101290.01;;;19.21;56.21
64632;BME280;58358;50.936;0.246;2022-09-01T10:20:10;101285.74;;;19.14;57.10
64632;BME280;58358;50.936;0.246;2022-09-01T10:22:30;101284.20;;;19.66;55.67
64632;BME280;58358;50.936;0.246;2022-09-01T10:24:55;101277.05;;;19.60;55.37
64632;BME280;58358;50.936;0.246;2022-09-01T10:27:25;101282.01;;;19.11;56.03
64632;BME280;58358;50.936;0.246;2022-09-01T10:29:49;101281.47;;;19.23;54.58
64632;BME280;58358;50.936;0.246;2022-09-01T10:32:17;101276.40;;;20.09;54.01
64632;BME280;58358;50.936;0.246;2022-09-01T10:34:39;101271.74;;;20.44;52.47
64632;BME280;58358;50.936;0.246;2022-09-01T10:37:05;101274.06;;;20.78;50.20
64632;BME280;58358;50.936;0.246;2022-09-01T10:39:28;101269.98;;;20.61;51.44
64632;BME280;58358;50.936;0.246;2022-09-01T10:41:54;101271.84;;;20.41;52.45
64632;BME280;58358;50.936;0.246;2022-09-01T10:44:22;101269.67;;;19.26;54.02
64632;BME280;58358;50.936;0.246;2022-09-01T10:46:45;101259.63;;;19.80;52.50
64632;BME280;58358;50.936;0.246;2022-09-01T10:49:20;101258.69;;;21.15;50.67
64632;BME280;58358;50.936;0.246;2022-09-01T10:51:44;101258.22;;;20.98;49.83
64632;BME280;58358;50.936;0.246;2022-09-01T10:54:01;101254.26;;;20.49;49.99
64632;BME280;58358;50.936;0.246;2022-09-01T10:56:36;101252.82;;;21.21;47.44
64632;BME280;58358;50.936;0.246;2022-09-01T10:58:59;101251.68;;;20.88;48.56
64632;BME280;58358;50.936;0.246;2022-09-01T11:03:50;101245.48;;;19.92;51.47
64632;BME280;58358;50.936;0.246;2022-09-01T11:06:09;101245.24;;;20.22;50.41
64632;BME280;58358;50.936;0.246;2022-09-01T11:08:43;101242.48;;;20.03;48.79
64632;BME280;58358;50.936;0.246;2022-09-01T11:11:03;101244.82;;;21.28;47.83
64632;BME280;58358;50.936;0.246;2022-09-01T11:13:35;101226.49;;;21.23;46.58
64632;BME280;58358;50.936;0.246;2022-09-01T11:15:52;101237.21;;;20.41;48.53
64632;BME280;58358;50.936;0.246;2022-09-01T11:18:23;101230.17;;;19.84;49.32
64632;BME280;58358;50.936;0.246;2022-09-01T11:20:44;101235.47;;;20.30;48.36
64632;BME280;58358;50.936;0.246;2022-09-01T11:23:11;101223.97;;;20.25;48.16
64632;BME280;58358;50.936;0.246;2022-09-01T11:25:37;101235.54;;;19.24;50.87
64632;BME280;58358;50.936;0.246;2022-09-01T11:28:02;101232.18;;;20.54;48.15
64632;BME280;58358;50.936;0.246;2022-09-01T11:30:37;101233.89;;;21.46;47.13
64632;BME280;58358;50.936;0.246;2022-09-01T11:32:56;101224.92;;;20.38;48.27
64632;BME280;58358;50.936;0.246;2022-09-01T11:35:22;101231.64;;;20.67;47.62
64632;BME280;58358;50.936;0.246;2022-09-01T11:37:47;101230.55;;;21.11;46.56
64632;BME280;58358;50.936;0.246;2022-09-01T11:40:08;101226.24;;;21.92;44.78
64632;BME280;58358;50.936;0.246;2022-09-01T11:42:38;101226.58;;;20.82;45.90
64632;BME280;58358;50.936;0.246;2022-09-01T11:45:01;101223.36;;;21.08;46.50
64632;BME280;58358;50.936;0.246;2022-09-01T11:47:26;101218.20;;;21.27;46.05
64632;BME280;58358;50.936;0.246;2022-09-01T11:49:53;101218.03;;;22.37;43.40
64632;BME280;58358;50.936;0.246;2022-09-01T11:52:17;101219.11;;;22.16;44.28
64632;BME280;58358;50.936;0.246;2022-09-01T11:54:42;101215.54;;;21.98;43.28
64632;BME280;58358;50.936;0.246;2022-09-01T11:57:17;101214.56;;;21.87;44.37
64632;BME280;58358;50.936;0.246;2022-09-01T11:59:34;101213.44;;;22.29;43.63
64632;BME280;58358;50.936;0.246;2022-09-01T12:01:57;101216.18;;;22.08;44.86
64632;BME280;58358;50.936;0.246;2022-09-01T12:04:25;101210.98;;;22.34;43.34
64632;BME280;58358;50.936;0.246;2022-09-01T12:06:55;101212.77;;;22.00;43.87
64632;BME280;58358;50.936;0.246;2022-09-01T12:09:14;101209.51;;;22.33;42.63
64632;BME280;58358;50.936;0.246;2022-09-01T12:11:40;101215.63;;;22.04;42.77
64632;BME280;58358;50.936;0.246;2022-09-01T12:14:07;101210.11;;;21.29;44.81
64632;BME280;58358;50.936;0.246;2022-09-01T12:16:33;101204.16;;;21.22;44.48
64632;BME280;58358;50.936;0.246;2022-09-01T12:18:57;101202.66;;;21.81;44.15
64632;BME280;58358;50.936;0.246;2022-09-01T12:21:25;101204.19;;;22.19;43.07
64632;BME280;58358;50.936;0.246;2022-09-01T12:23:47;101205.68;;;22.62;42.34
64632;BME280;58358;50.936;0.246;2022-09-01T12:26:14;101203.81;;;22.27;42.55
64632;BME280;58358;50.936;0.246;2022-09-01T12:28:38;101207.29;;;23.04;42.26
64632;BME280;58358;50.936;0.246;2022-09-01T12:31:06;101200.63;;;21.85;43.72
64632;BME280;58358;50.936;0.246;2022-09-01T12:33:30;101195.30;;;22.00;43.57
64632;BME280;58358;50.936;0.246;2022-09-01T12:38:24;101194.62;;;22.08;43.64
64632;BME280;58358;50.936;0.246;2022-09-01T12:40:48;101189.23;;;21.39;44.38
64632;BME280;58358;50.936;0.246;2022-09-01T12:45:41;101191.73;;;21.53;43.96
64632;BME280;58358;50.936;0.246;2022-09-01T12:48:03;101189.67;;;22.26;43.10
64632;BME280;58358;50.936;0.246;2022-09-01T12:50:36;101196.30;;;23.66;40.85
64632;BME280;58358;50.936;0.246;2022-09-01T12:52:54;101196.46;;;22.76;42.47
64632;BME280;58358;50.936;0.246;2022-09-01T12:55:22;101191.29;;;22.66;41.96